createdAt,value
2018-06-10T00:01:02.595Z,101252.17
2018-06-10T00:03:32.038Z,101249.80
2018-06-10T00:06:01.399Z,101249.09
2018-06-10T00:08:30.952Z,101253.91
2018-06-10T00:11:00.375Z,101240.27
2018-06-10T00:13:29.702Z,101243.04
2018-06-10T00:15:59.259Z,101243.56
2018-06-10T00:18:28.773Z,101243.66
2018-06-10T00:20:58.275Z,101236.89
2018-06-10T00:24:30.607Z,101233.94
2018-06-10T00:27:00.362Z,101242.98
2018-06-10T00:29:29.571Z,101234.91
2018-06-10T00:31:59.266Z,101232.20
2018-06-10T00:34:28.674Z,101233.56
2018-06-10T00:36:57.826Z,101232.91
2018-06-10T00:39:27.429Z,101224.29
2018-06-10T00:41:56.874Z,101228.89
2018-06-10T00:44:26.081Z,101224.78
2018-06-10T00:46:55.885Z,101222.17
2018-06-10T00:49:26.355Z,101226.80
2018-06-10T00:51:55.687Z,101224.22
2018-06-10T00:54:26.149Z,101228.59
2018-06-10T00:56:55.349Z,101231.20
2018-06-10T00:59:24.900Z,101221.44
2018-06-10T01:01:55.118Z,101223.34
2018-06-10T01:04:24.863Z,101220.68
2018-06-10T01:06:54.511Z,101215.25
2018-06-10T01:09:24.352Z,101216.16
2018-06-10T01:11:55.069Z,101207.25
2018-06-10T01:14:24.701Z,101209.31
2018-06-10T01:16:55.018Z,101213.65
2018-06-10T01:19:24.805Z,101201.31
2018-06-10T01:21:54.486Z,101201.73
2018-06-10T01:24:23.855Z,101201.44
2018-06-10T01:26:53.625Z,101196.48
2018-06-10T01:29:29.797Z,101202.64
2018-06-10T01:31:59.744Z,101072.88
2018-06-10T01:34:29.969Z,101198.88
2018-06-10T01:36:59.701Z,101192.83
2018-06-10T01:39:29.241Z,101191.88
2018-06-10T01:41:59.929Z,101187.67
2018-06-10T01:44:29.750Z,101184.19
2018-06-10T01:47:00.043Z,101188.58
2018-06-10T01:49:30.093Z,101180.09
2018-06-10T01:52:00.826Z,101184.28
2018-06-10T01:54:30.458Z,101181.09
2018-06-10T01:56:59.680Z,101174.19
2018-06-10T01:59:29.346Z,101179.52
2018-06-10T02:01:59.244Z,101174.25
2018-06-10T02:04:28.531Z,101169.61
2018-06-10T02:06:58.161Z,101171.83
2018-06-10T02:09:28.013Z,101171.16
2018-06-10T02:11:57.793Z,101164.82
2018-06-10T02:14:27.543Z,101167.77
2018-06-10T02:16:57.009Z,101161.91
2018-06-10T02:19:26.485Z,101158.06
2018-06-10T02:21:55.870Z,101154.95
2018-06-10T02:24:25.586Z,101149.67
2018-06-10T02:26:55.227Z,101151.77
2018-06-10T02:29:24.829Z,101149.19
2018-06-10T02:31:54.373Z,101144.44
2018-06-10T02:34:26.114Z,101149.70
2018-06-10T02:36:56.209Z,101148.19
2018-06-10T02:39:25.921Z,101144.28
2018-06-10T02:41:55.785Z,101148.80
2018-06-10T02:44:25.141Z,101147.03
2018-06-10T02:46:54.504Z,101146.52
2018-06-10T02:49:24.161Z,101144.28
2018-06-10T02:51:53.837Z,101141.61
2018-06-10T02:54:23.382Z,101141.40
2018-06-10T02:56:52.765Z,101137.92
2018-06-10T02:59:22.287Z,101143.55
2018-06-10T03:01:52.294Z,101146.13
2018-06-10T03:04:21.997Z,101145.70
2018-06-10T03:06:51.813Z,101145.41
2018-06-10T03:09:21.667Z,101141.77
2018-06-10T03:11:52.935Z,101140.70
2018-06-10T03:14:22.158Z,101139.67
2018-06-10T03:16:54.011Z,101142.24
2018-06-10T03:19:24.213Z,101150.24
2018-06-10T03:21:55.501Z,101028.50
2018-06-10T03:24:25.132Z,101117.92
2018-06-10T03:26:55.070Z,101140.58
2018-06-10T03:29:24.782Z,101135.15
2018-06-10T03:31:54.358Z,101143.06
2018-06-10T03:34:23.942Z,101145.05
2018-06-10T03:36:53.961Z,101148.95
2018-06-10T03:39:23.262Z,101151.59
2018-06-10T03:41:53.281Z,101156.80
2018-06-10T03:44:23.291Z,101148.64
2018-06-10T03:46:52.664Z,101152.84
2018-06-10T03:49:22.245Z,101146.47
2018-06-10T03:51:51.998Z,101143.93
2018-06-10T03:54:21.219Z,101144.31
2018-06-10T03:56:51.074Z,101141.13
2018-06-10T03:59:20.786Z,101144.22
2018-06-10T04:01:50.517Z,101139.66
2018-06-10T04:04:20.087Z,101138.69
2018-06-10T04:06:49.697Z,101145.55
2018-06-10T04:09:20.076Z,101140.50
2018-06-10T04:11:49.683Z,101132.78
2018-06-10T04:14:19.892Z,101134.44
2018-06-10T04:16:49.259Z,101133.81
2018-06-10T04:19:18.708Z,101130.20
2018-06-10T04:21:48.273Z,101124.58
2018-06-10T04:24:17.633Z,101129.71
2018-06-10T04:26:47.137Z,101124.86
2018-06-10T04:29:16.594Z,101121.20
2018-06-10T04:31:45.902Z,101117.28
2018-06-10T04:34:22.744Z,101118.48
2018-06-10T04:36:53.150Z,101118.97
2018-06-10T04:39:22.983Z,101121.53
2018-06-10T04:41:52.940Z,101126.77
2018-06-10T04:44:22.975Z,101113.88
2018-06-10T04:46:52.233Z,101117.28
2018-06-10T04:49:21.872Z,101119.67
2018-06-10T04:51:51.587Z,101107.45
2018-06-10T04:54:21.240Z,101112.85
2018-06-10T04:56:50.694Z,101109.13
2018-06-10T04:59:20.168Z,101109.75
2018-06-10T05:01:49.609Z,101104.57
2018-06-10T05:04:19.495Z,101103.86
2018-06-10T05:06:49.166Z,101097.17
2018-06-10T05:09:18.745Z,101104.20
2018-06-10T05:11:48.449Z,101102.87
2018-06-10T05:14:17.897Z,101101.42
2018-06-10T05:20:20.779Z,101098.91
2018-06-10T05:22:50.003Z,101099.03
2018-06-10T05:25:19.465Z,101095.59
2018-06-10T05:27:48.992Z,101095.40
2018-06-10T05:30:18.256Z,101086.73
2018-06-10T05:32:48.141Z,101096.23
2018-06-10T05:35:17.832Z,101095.39
2018-06-10T05:37:47.392Z,101097.66
2018-06-10T05:40:17.068Z,101092.38
2018-06-10T05:42:46.923Z,101094.23
2018-06-10T05:45:16.376Z,101088.47
2018-06-10T05:47:46.040Z,101088.86
2018-06-10T05:50:15.427Z,101095.77
2018-06-10T05:52:45.601Z,101095.44
2018-06-10T05:55:15.317Z,101100.74
2018-06-10T05:57:44.932Z,101097.98
2018-06-10T06:00:14.260Z,101094.52
2018-06-10T06:02:43.630Z,101094.63
2018-06-10T06:05:12.979Z,101097.19
2018-06-10T06:07:42.903Z,101097.56
2018-06-10T06:10:12.336Z,101101.45
2018-06-10T06:12:42.352Z,101101.73
2018-06-10T06:15:12.035Z,101103.20
2018-06-10T06:17:42.163Z,101101.71
2018-06-10T06:20:11.916Z,101104.65
2018-06-10T06:22:41.515Z,101097.78
2018-06-10T06:25:11.175Z,101099.53
2018-06-10T06:27:40.676Z,101092.15
2018-06-10T06:30:09.947Z,101095.76
2018-06-10T06:32:40.014Z,101088.92
2018-06-10T06:35:10.305Z,101092.02
2018-06-10T06:37:39.777Z,101091.70
2018-06-10T06:40:09.514Z,101092.58
2018-06-10T06:42:39.629Z,101082.32
2018-06-10T06:45:09.673Z,101079.59
2018-06-10T06:47:39.647Z,101064.34
2018-06-10T06:50:11.263Z,101061.56
2018-06-10T06:52:40.813Z,101056.75
2018-06-10T06:55:11.475Z,101057.41
2018-06-10T06:57:41.506Z,101052.93
2018-06-10T07:00:10.904Z,101054.92
2018-06-10T07:02:41.515Z,101057.22
2018-06-10T07:05:11.662Z,101046.97
2018-06-10T07:07:41.558Z,101048.47
2018-06-10T07:10:11.975Z,101052.44
2018-06-10T07:12:41.421Z,101055.77
2018-06-10T07:15:11.568Z,101063.84
2018-06-10T07:17:41.831Z,101053.57
2018-06-10T07:20:11.784Z,101064.80
2018-06-10T07:22:41.998Z,101064.68
2018-06-10T07:25:12.351Z,101071.91
2018-06-10T07:27:41.994Z,101080.12
2018-06-10T07:30:11.976Z,101072.69
2018-06-10T07:32:42.227Z,101066.91
2018-06-10T07:35:11.991Z,101066.77
2018-06-10T07:37:42.026Z,101069.38
2018-06-10T07:40:11.998Z,101057.33
2018-06-10T07:42:41.969Z,101045.06
2018-06-10T07:45:12.120Z,101043.87
2018-06-10T07:47:42.491Z,101034.78
2018-06-10T07:50:12.133Z,101037.69
2018-06-10T07:52:42.128Z,101032.84
2018-06-10T07:55:11.948Z,101017.94
2018-06-10T07:57:41.797Z,101014.92
2018-06-10T08:00:11.770Z,101015.80
2018-06-10T08:02:41.612Z,101013.94
2018-06-10T08:05:17.974Z,101015.88
2018-06-10T08:07:47.963Z,101008.28
2018-06-10T08:10:17.861Z,101005.24
2018-06-10T08:12:48.797Z,101003.96
2018-06-10T08:15:18.392Z,101005.70
2018-06-10T08:17:48.027Z,101005.73
2018-06-10T08:20:17.753Z,101006.72
2018-06-10T08:22:47.147Z,101009.97
2018-06-10T08:25:16.682Z,101008.04
2018-06-10T08:27:46.539Z,101006.49
2018-06-10T08:30:16.620Z,101000.80
2018-06-10T08:32:46.532Z,100996.34
2018-06-10T08:35:16.515Z,100998.80
2018-06-10T08:37:46.506Z,100889.54
2018-06-10T08:40:16.126Z,100983.71
2018-06-10T08:42:46.040Z,100987.17
2018-06-10T08:45:15.546Z,100979.95
2018-06-10T08:47:45.511Z,100980.41
2018-06-10T08:50:15.318Z,100976.59
2018-06-10T08:52:45.173Z,100977.44
2018-06-10T08:55:14.608Z,100977.64
2018-06-10T08:57:44.057Z,100972.16
2018-06-10T09:00:13.930Z,100972.86
2018-06-10T09:02:44.106Z,100968.60
2018-06-10T09:05:14.289Z,100966.70
2018-06-10T09:07:44.983Z,100962.83
2018-06-10T09:10:15.112Z,100964.45
2018-06-10T09:12:44.758Z,100955.02
2018-06-10T09:15:14.354Z,100952.73
2018-06-10T09:17:44.410Z,100951.84
2018-06-10T09:20:14.889Z,100952.08
2018-06-10T09:22:44.959Z,100955.98
2018-06-10T09:25:17.043Z,100955.98
2018-06-10T09:27:46.756Z,100961.38
2018-06-10T09:30:17.291Z,100958.78
2018-06-10T09:32:47.084Z,100953.25
2018-06-10T09:35:16.283Z,100949.26
2018-06-10T09:37:45.697Z,100957.08
2018-06-10T09:40:17.025Z,100949.13
2018-06-10T09:42:47.400Z,100947.68
2018-06-10T09:45:17.702Z,100941.33
2018-06-10T09:47:47.955Z,100901.19
2018-06-10T09:50:17.528Z,100943.22
2018-06-10T09:52:47.962Z,100940.63
2018-06-10T09:55:17.791Z,100936.00
2018-06-10T09:57:47.340Z,100937.59
2018-06-10T10:00:22.181Z,100933.95
2018-06-10T10:02:52.223Z,100931.05
2018-06-10T10:05:22.425Z,100929.69
2018-06-10T10:07:52.561Z,100922.14
2018-06-10T10:10:22.662Z,100927.64
2018-06-10T10:12:52.551Z,100926.73
2018-06-10T10:15:22.194Z,100920.52
2018-06-10T10:17:51.945Z,100922.17
2018-06-10T10:20:21.758Z,100913.05
2018-06-10T10:22:51.914Z,100916.61
2018-06-10T10:25:21.689Z,100918.63
2018-06-10T10:27:51.913Z,100914.76
2018-06-10T10:30:21.821Z,100921.48
2018-06-10T10:32:52.172Z,100916.09
2018-06-10T10:35:22.022Z,100923.51
2018-06-10T10:37:52.686Z,100919.30
2018-06-10T10:40:23.835Z,100919.39
2018-06-10T10:42:57.511Z,100914.48
2018-06-10T10:45:28.072Z,100911.98
2018-06-10T10:47:57.977Z,100911.01
2018-06-10T10:50:27.937Z,100916.13
2018-06-10T10:52:57.960Z,100916.28
2018-06-10T10:55:27.780Z,100919.02
2018-06-10T10:57:57.345Z,100920.41
2018-06-10T11:00:27.525Z,100916.13
2018-06-10T11:02:57.395Z,100916.08
2018-06-10T11:05:27.299Z,100921.78
2018-06-10T11:07:57.035Z,100921.41
2018-06-10T11:10:27.158Z,100923.52
2018-06-10T11:12:57.757Z,100921.01
2018-06-10T11:15:27.753Z,100922.08
2018-06-10T11:17:58.367Z,100930.17
2018-06-10T11:20:28.509Z,100915.17
2018-06-10T11:22:58.355Z,100916.68
2018-06-10T11:25:27.940Z,100915.92
2018-06-10T11:27:58.328Z,100914.02
2018-06-10T11:30:28.263Z,100887.95
2018-06-10T11:32:57.905Z,100916.33
2018-06-10T11:35:29.264Z,100920.28
2018-06-10T11:37:59.512Z,100909.77
2018-06-10T11:40:30.389Z,100910.13
2018-06-10T11:43:00.029Z,100900.84
2018-06-10T11:45:30.072Z,100903.09
2018-06-10T11:48:00.168Z,100909.30
2018-06-10T11:50:29.688Z,100914.33
2018-06-10T11:52:59.395Z,100918.89
2018-06-10T11:55:29.516Z,100697.06
2018-06-10T11:57:59.436Z,100908.66
2018-06-10T12:00:29.333Z,100915.47
2018-06-10T12:02:59.424Z,100914.03
2018-06-10T12:05:28.961Z,100912.03
2018-06-10T12:07:58.980Z,100920.69
2018-06-10T12:10:28.831Z,100915.30
2018-06-10T12:12:59.481Z,100918.03
2018-06-10T12:15:29.455Z,100916.69
2018-06-10T12:17:59.204Z,100914.59
2018-06-10T12:20:29.022Z,100912.23
2018-06-10T12:22:58.750Z,100910.48
2018-06-10T12:25:28.519Z,100912.02
2018-06-10T12:27:58.546Z,100915.77
2018-06-10T12:30:28.811Z,100916.05
2018-06-10T12:32:58.686Z,100912.13
2018-06-10T12:35:28.290Z,100918.63
2018-06-10T12:37:57.916Z,100922.77
2018-06-10T12:40:27.986Z,100926.80
2018-06-10T12:42:58.236Z,100921.77
2018-06-10T12:45:28.073Z,100920.99
2018-06-10T12:47:57.817Z,100920.54
2018-06-10T12:50:29.692Z,100917.27
2018-06-10T12:53:01.220Z,100920.94
2018-06-10T12:55:31.727Z,100923.58
2018-06-10T12:58:02.868Z,100917.30
2018-06-10T13:00:32.809Z,100921.64
2018-06-10T13:03:04.458Z,100923.34
2018-06-10T13:05:34.124Z,100921.91
2018-06-10T13:08:05.145Z,100925.80
2018-06-10T13:10:35.389Z,100924.27
2018-06-10T13:13:05.760Z,100924.58
2018-06-10T13:15:35.810Z,100926.09
2018-06-10T13:18:06.564Z,100932.49
2018-06-10T13:20:39.025Z,100925.31
2018-06-10T13:23:09.569Z,100927.56
2018-06-10T13:25:41.728Z,100929.09
2018-06-10T13:28:13.084Z,100930.88
2018-06-10T13:30:45.049Z,100925.77
2018-06-10T13:33:15.984Z,100931.69
2018-06-10T13:35:45.577Z,100933.90
2018-06-10T13:38:15.316Z,100925.50
2018-06-10T13:40:45.369Z,100925.33
2018-06-10T13:43:15.166Z,100918.78
2018-06-10T13:45:44.883Z,100920.33
2018-06-10T13:48:15.214Z,100928.97
2018-06-10T13:50:45.191Z,100933.80
2018-06-10T13:53:15.017Z,100938.79
2018-06-10T13:55:45.002Z,100942.30
2018-06-10T13:58:15.148Z,100934.69
2018-06-10T14:00:45.400Z,100947.45
2018-06-10T14:03:16.336Z,100951.14
2018-06-10T14:05:46.203Z,100957.92
2018-06-10T14:08:15.817Z,100965.59
2018-06-10T14:10:46.209Z,100974.02
2018-06-10T14:13:16.038Z,100970.42
2018-06-10T14:15:46.245Z,100970.48
2018-06-10T14:18:17.201Z,100973.06
2018-06-10T14:20:46.858Z,100973.45
2018-06-10T14:23:16.728Z,100971.74
2018-06-10T14:25:46.806Z,100962.39
2018-06-10T14:28:16.761Z,100956.36
2018-06-10T14:30:46.981Z,100962.14
2018-06-10T14:33:17.101Z,100947.66
2018-06-10T14:35:47.627Z,100948.61
2018-06-10T14:38:17.625Z,100948.83
2018-06-10T14:40:48.232Z,100943.80
2018-06-10T14:43:18.291Z,100948.08
2018-06-10T14:45:48.924Z,100942.73
2018-06-10T14:48:18.625Z,100952.98
2018-06-10T14:50:48.204Z,100940.49
2018-06-10T14:53:18.364Z,100943.09
2018-06-10T14:55:48.420Z,100939.02
2018-06-10T14:58:18.651Z,100937.80
2018-06-10T15:00:48.505Z,100936.28
2018-06-10T15:03:18.303Z,100930.42
2018-06-10T15:05:48.013Z,100927.98
2018-06-10T15:08:17.602Z,100919.73
2018-06-10T15:10:47.361Z,100917.30
2018-06-10T15:13:17.075Z,100909.63
2018-06-10T15:15:46.464Z,100903.41
2018-06-10T15:18:16.211Z,100904.09
2018-06-10T15:20:46.241Z,100899.73
2018-06-10T15:23:16.681Z,100888.97
2018-06-10T15:25:46.648Z,100888.04
2018-06-10T15:28:16.136Z,100892.19
2018-06-10T15:30:45.920Z,100889.89
2018-06-10T15:33:16.452Z,100886.30
2018-06-10T15:35:46.432Z,100889.09
2018-06-10T15:38:16.699Z,100886.51
2018-06-10T15:40:47.048Z,100886.38
2018-06-10T15:43:16.631Z,100880.06
2018-06-10T15:45:46.428Z,100883.46
2018-06-10T15:48:16.707Z,100877.05
2018-06-10T15:50:48.580Z,100869.45
2018-06-10T15:53:18.700Z,100860.77
2018-06-10T15:55:48.728Z,100849.80
2018-06-10T15:58:18.407Z,100847.81
2018-06-10T16:00:48.128Z,100848.45
2018-06-10T16:03:18.133Z,100842.64
2018-06-10T16:05:48.445Z,100852.20
2018-06-10T16:08:17.984Z,100855.55
2018-06-10T16:10:47.829Z,100846.86
2018-06-10T16:13:17.572Z,100843.52
2018-06-10T16:15:47.483Z,100841.77
2018-06-10T16:18:20.594Z,100834.91
2018-06-10T16:20:50.659Z,100836.15
2018-06-10T16:23:20.474Z,100834.44
2018-06-10T16:25:50.195Z,100831.23
2018-06-10T16:28:20.488Z,100820.41
2018-06-10T16:30:50.092Z,100819.46
2018-06-10T16:33:19.700Z,100813.58
2018-06-10T16:35:49.431Z,100808.52
2018-06-10T16:38:19.479Z,100809.19
2018-06-10T16:40:49.506Z,100804.76
2018-06-10T16:43:20.435Z,100801.16
2018-06-10T16:45:50.756Z,100805.70
2018-06-10T16:48:21.696Z,100801.91
2018-06-10T16:50:51.698Z,100798.70
2018-06-10T16:53:21.838Z,100795.64
2018-06-10T16:55:51.618Z,100786.34
2018-06-10T16:58:21.558Z,100786.47
2018-06-10T17:00:51.627Z,100791.19
2018-06-10T17:03:21.193Z,100783.46
2018-06-10T17:05:51.421Z,100777.24
2018-06-10T17:08:21.432Z,100771.23
2018-06-10T17:10:51.006Z,100769.85
2018-06-10T17:13:20.770Z,100770.89
2018-06-10T17:15:50.885Z,100771.10
2018-06-10T17:18:20.782Z,100757.45
2018-06-10T17:20:50.250Z,100765.02
2018-06-10T17:23:20.927Z,100764.96
2018-06-10T17:25:50.178Z,100762.42
2018-06-10T17:28:19.899Z,100764.14
2018-06-10T17:30:49.490Z,100763.50
2018-06-10T17:33:18.989Z,100770.38
2018-06-10T17:35:48.278Z,100757.45
2018-06-10T17:38:17.759Z,100756.28
2018-06-10T17:40:46.951Z,100761.84
2018-06-10T17:43:16.893Z,100760.88
2018-06-10T17:45:47.237Z,100753.61
2018-06-10T17:48:17.080Z,100754.86
2018-06-10T17:50:46.957Z,100749.48
2018-06-10T17:53:17.062Z,100759.30
2018-06-10T17:55:46.684Z,100754.53
2018-06-10T17:58:17.032Z,100754.48
2018-06-10T18:00:47.474Z,100749.22
2018-06-10T18:03:17.650Z,100750.77
2018-06-10T18:05:47.974Z,100745.02
2018-06-10T18:08:17.591Z,100744.08
2018-06-10T18:10:47.757Z,100747.01
2018-06-10T18:13:17.558Z,100745.59
2018-06-10T18:15:48.403Z,100741.80
2018-06-10T18:18:18.162Z,100654.59
2018-06-10T18:20:49.120Z,100739.25
2018-06-10T18:23:19.829Z,100740.59
2018-06-10T18:25:49.902Z,100745.95
2018-06-10T18:28:21.048Z,100730.85
2018-06-10T18:30:51.983Z,100728.85
2018-06-10T18:33:22.165Z,100734.72
2018-06-10T18:35:52.750Z,100733.30
2018-06-10T18:38:22.538Z,100727.91
2018-06-10T18:40:52.864Z,100728.56
2018-06-10T18:43:22.537Z,100720.46
2018-06-10T18:45:54.597Z,100714.52
2018-06-10T18:48:26.376Z,100714.52
2018-06-10T18:50:56.502Z,100717.19
2018-06-10T18:53:25.929Z,100711.17
2018-06-10T18:55:56.656Z,100722.11
2018-06-10T18:58:26.848Z,100712.09
2018-06-10T19:00:56.491Z,100716.02
2018-06-10T19:03:26.221Z,100719.88
2018-06-10T19:05:57.410Z,100713.17
2018-06-10T19:08:29.012Z,100704.27
2018-06-10T19:10:58.886Z,100720.61
2018-06-10T19:13:29.990Z,100723.54
2018-06-10T19:16:00.038Z,100726.80
2018-06-10T19:18:30.702Z,100725.92
2018-06-10T19:21:00.809Z,100718.00
2018-06-10T19:23:30.687Z,100718.91
2018-06-10T19:26:00.945Z,100719.02
2018-06-10T19:28:31.519Z,100724.61
2018-06-10T19:31:01.665Z,100722.27
2018-06-10T19:33:32.224Z,100720.66
2018-06-10T19:36:02.549Z,100727.85
2018-06-10T19:38:32.220Z,100730.62
2018-06-10T19:41:02.303Z,100724.70
2018-06-10T19:43:31.952Z,100727.51
2018-06-10T19:46:01.927Z,100724.14
2018-06-10T19:48:31.728Z,100726.70
2018-06-10T19:51:01.716Z,100727.75
2018-06-10T19:53:31.558Z,100725.46
2018-06-10T19:56:01.596Z,100725.30
2018-06-10T19:58:30.971Z,100722.00
2018-06-10T20:01:00.987Z,100721.76
2018-06-10T20:03:31.069Z,100722.03
2018-06-10T20:06:00.750Z,100728.14
2018-06-10T20:08:30.562Z,100731.89
2018-06-10T20:11:01.743Z,100733.56
2018-06-10T20:13:31.543Z,100725.58
2018-06-10T20:16:01.694Z,100729.19
2018-06-10T20:18:31.704Z,100726.80
2018-06-10T20:21:01.441Z,100729.56
2018-06-10T20:23:32.522Z,100726.91
2018-06-10T20:26:02.787Z,100727.27
2018-06-10T20:28:33.004Z,100725.25
2018-06-10T20:31:02.661Z,100728.84
2018-06-10T20:33:32.757Z,100737.20
2018-06-10T20:36:02.487Z,100735.23
2018-06-10T20:38:32.288Z,100734.51
2018-06-10T20:41:02.833Z,100741.89
2018-06-10T20:43:32.302Z,100737.66
2018-06-10T20:46:01.960Z,100741.27
2018-06-10T20:48:31.956Z,100748.85
2018-06-10T20:51:01.912Z,100745.42
2018-06-10T20:53:31.658Z,100750.42
2018-06-10T20:56:01.846Z,100747.24
2018-06-10T20:58:32.316Z,100750.70
2018-06-10T21:01:02.631Z,100749.89
2018-06-10T21:03:33.081Z,100749.09
2018-06-10T21:06:03.196Z,100751.75
2018-06-10T21:08:33.026Z,100743.96
2018-06-10T21:11:03.530Z,100748.47
2018-06-10T21:13:33.965Z,100748.28
2018-06-10T21:16:04.059Z,100751.49
2018-06-10T21:18:33.478Z,100736.83
2018-06-10T21:21:03.145Z,100745.16
2018-06-10T21:23:33.086Z,100752.53
2018-06-10T21:26:02.772Z,100751.23
2018-06-10T21:28:32.920Z,100749.00
2018-06-10T21:31:03.251Z,100675.94
2018-06-10T21:33:35.270Z,100748.38
2018-06-10T21:36:05.045Z,100751.04
2018-06-10T21:38:35.118Z,100749.80
2018-06-10T21:41:04.740Z,100753.57
2018-06-10T21:43:34.938Z,100753.49
2018-06-10T21:46:05.583Z,100746.23
2018-06-10T21:48:35.845Z,100750.13
2018-06-10T21:51:05.516Z,100751.04
2018-06-10T21:53:35.169Z,100745.72
2018-06-10T21:56:05.036Z,100755.45
2018-06-10T21:58:35.613Z,100746.95
2018-06-10T22:01:06.041Z,100743.56
2018-06-10T22:03:35.793Z,100750.33
2018-06-10T22:06:05.225Z,100754.52
2018-06-10T22:08:35.274Z,100743.28
2018-06-10T22:11:04.931Z,100741.47
2018-06-10T22:13:35.024Z,100743.38
2018-06-10T22:16:05.373Z,100742.85
2018-06-10T22:18:34.808Z,100744.38
2018-06-10T22:21:04.535Z,100743.38
2018-06-10T22:23:35.212Z,100744.19
2018-06-10T22:26:05.123Z,100745.06
2018-06-10T22:28:35.438Z,100739.06
2018-06-10T22:31:04.903Z,100610.30
2018-06-10T22:33:35.012Z,100740.62
2018-06-10T22:36:04.816Z,100734.36
2018-06-10T22:38:34.893Z,100734.45
2018-06-10T22:41:04.539Z,100734.58
2018-06-10T22:43:34.555Z,100729.13
2018-06-10T22:46:04.115Z,100726.27
2018-06-10T22:48:33.818Z,100728.64
2018-06-10T22:51:03.513Z,100727.60
2018-06-10T22:54:45.601Z,100712.58
2018-06-10T22:57:16.032Z,100716.96
2018-06-10T22:59:45.766Z,100713.30
2018-06-10T23:02:15.684Z,100710.63
2018-06-10T23:04:46.902Z,100703.27
2018-06-10T23:07:16.859Z,100698.05
2018-06-10T23:09:46.987Z,100700.17
2018-06-10T23:12:17.000Z,100698.84
2018-06-10T23:14:48.297Z,100700.50
2018-06-10T23:17:18.549Z,100694.95
2018-06-10T23:19:48.416Z,100700.41
2018-06-10T23:22:18.593Z,100696.81
2018-06-10T23:24:53.052Z,100695.19
2018-06-10T23:27:22.981Z,100696.19
2018-06-10T23:29:53.268Z,100695.89
2018-06-10T23:32:22.937Z,100689.95
2018-06-10T23:34:52.590Z,100694.37
2018-06-10T23:37:22.923Z,100696.00
2018-06-10T23:39:53.427Z,100693.23
2018-06-10T23:42:24.104Z,100694.59
2018-06-10T23:44:54.169Z,100693.14
2018-06-10T23:47:23.731Z,100687.30
2018-06-10T23:49:53.928Z,100687.75
2018-06-10T23:52:23.626Z,100685.61
2018-06-10T23:54:53.789Z,100680.81
2018-06-10T23:57:24.323Z,100682.08
2018-06-10T23:59:55.106Z,100678.70
